Du har inga inställningar för hoppväder.nu

Hoppväder.nu

Senast uppdaterat 23:40

UTC-tid

2019-10-20 kl. 21:40


Sol och måne

Solen går upp 7:56 och går ner 17:50 (beräknade cirkatider)
Nästa fullmåne blir om 23 dagar (2019-11-12)

METAR

ESNU (Umeå)
(20 minuter sedan)
ESNU 202120Z 34008KT 9999 SCT033 OVC140 M00/M02 Q1015=



ESNO (Örnsköldsvik)
(20 minuter sedan)
ESNO 202120Z AUTO 34005KT 310V010 9999 OVC029/// M00/M03 Q1015=



ESNS (Skellefteå)
(20 minuter sedan)
ESNS 202120Z AUTO 35005KT 9999 SCT008/// BKN013/// BKN020/// M01/M04 Q1015=









TAF

ESNU (Umeå)
(70 minuter sedan)
ESNU 202030Z 2021/2106 36007KT 9999 BKN035=



ESNO (Örnsköldsvik)
(250 minuter sedan)
ESNO 201730Z 2018/2022 01005KT 9000 -SN SCT010 BKN025 TEMPO 2018/2022 4000 BKN012=



ESNS (Skellefteå)
(250 minuter sedan)
ESNS 201730Z 2018/2022 31005KT 9999 BKN012 PROB40 2018/2022 BKN009=





Kodnycklar till TAF och METAR






LHP

(Umeå är område A1c i Norra delen)





Spotting

Hur fungerar spotthjälpen och Vindkartan?

Markvind är ca 0 m/s.



Vindkartan

Senast uppdaterad 23:40




All data kommer från LFV.se